sensor_id;sensor_type;location;lat;lon;timestamp;P1;durP1;ratioP1;P2;durP2;ratioP2
2458;SDS011;1241;50.920;6.936;2022-07-09T00:02:03;6.83;;;6.10;;
2458;SDS011;1241;50.920;6.936;2022-07-09T00:04:29;9.70;;;6.23;;
2458;SDS011;1241;50.920;6.936;2022-07-09T00:06:55;6.20;;;5.60;;
2458;SDS011;1241;50.920;6.936;2022-07-09T00:09:21;9.43;;;7.03;;
2458;SDS011;1241;50.920;6.936;2022-07-09T00:11:46;6.23;;;5.73;;
2458;SDS011;1241;50.920;6.936;2022-07-09T00:14:12;6.70;;;5.03;;
2458;SDS011;1241;50.920;6.936;2022-07-09T00:16:38;9.60;;;6.00;;
2458;SDS011;1241;50.920;6.936;2022-07-09T00:19:03;7.83;;;5.60;;
2458;SDS011;1241;50.920;6.936;2022-07-09T00:21:29;7.17;;;6.40;;
2458;SDS011;1241;50.920;6.936;2022-07-09T00:23:55;6.83;;;6.30;;
2458;SDS011;1241;50.920;6.936;2022-07-09T00:26:21;6.00;;;5.23;;
2458;SDS011;1241;50.920;6.936;2022-07-09T00:28:47;8.43;;;6.07;;
2458;SDS011;1241;50.920;6.936;2022-07-09T00:31:12;7.07;;;6.47;;
2458;SDS011;1241;50.920;6.936;2022-07-09T00:33:38;7.40;;;6.70;;
2458;SDS011;1241;50.920;6.936;2022-07-09T00:36:04;6.70;;;6.17;;
2458;SDS011;1241;50.920;6.936;2022-07-09T00:38:30;9.97;;;7.10;;
2458;SDS011;1241;50.920;6.936;2022-07-09T00:40:56;7.33;;;6.60;;
2458;SDS011;1241;50.920;6.936;2022-07-09T00:43:22;7.20;;;5.70;;
2458;SDS011;1241;50.920;6.936;2022-07-09T00:45:49;7.20;;;6.50;;
2458;SDS011;1241;50.920;6.936;2022-07-09T00:48:14;6.73;;;6.23;;
2458;SDS011;1241;50.920;6.936;2022-07-09T00:50:41;6.57;;;5.97;;
2458;SDS011;1241;50.920;6.936;2022-07-09T00:53:15;7.87;;;6.63;;
2458;SDS011;1241;50.920;6.936;2022-07-09T00:55:43;9.60;;;6.50;;
2458;SDS011;1241;50.920;6.936;2022-07-09T00:58:11;8.77;;;6.80;;
2458;SDS011;1241;50.920;6.936;2022-07-09T01:00:39;8.70;;;7.20;;
2458;SDS011;1241;50.920;6.936;2022-07-09T01:03:06;6.57;;;6.00;;
2458;SDS011;1241;50.920;6.936;2022-07-09T01:05:32;9.83;;;8.93;;
2458;SDS011;1241;50.920;6.936;2022-07-09T01:08:04;7.33;;;6.60;;
2458;SDS011;1241;50.920;6.936;2022-07-09T01:10:31;7.47;;;6.77;;
2458;SDS011;1241;50.920;6.936;2022-07-09T01:12:58;10.80;;;8.10;;
2458;SDS011;1241;50.920;6.936;2022-07-09T01:15:24;7.53;;;6.53;;
2458;SDS011;1241;50.920;6.936;2022-07-09T01:17:50;11.80;;;6.93;;
2458;SDS011;1241;50.920;6.936;2022-07-09T01:20:19;8.47;;;6.83;;
2458;SDS011;1241;50.920;6.936;2022-07-09T01:22:48;7.10;;;6.40;;
2458;SDS011;1241;50.920;6.936;2022-07-09T01:25:14;8.03;;;6.30;;
2458;SDS011;1241;50.920;6.936;2022-07-09T01:27:42;8.00;;;7.30;;
2458;SDS011;1241;50.920;6.936;2022-07-09T01:30:08;7.40;;;6.70;;
2458;SDS011;1241;50.920;6.936;2022-07-09T01:32:34;7.90;;;7.20;;
2458;SDS011;1241;50.920;6.936;2022-07-09T01:34:59;8.00;;;6.60;;
2458;SDS011;1241;50.920;6.936;2022-07-09T01:37:25;10.33;;;7.80;;
2458;SDS011;1241;50.920;6.936;2022-07-09T01:39:51;14.93;;;9.13;;
2458;SDS011;1241;50.920;6.936;2022-07-09T01:42:17;11.93;;;7.77;;
2458;SDS011;1241;50.920;6.936;2022-07-09T01:44:46;8.30;;;7.60;;
2458;SDS011;1241;50.920;6.936;2022-07-09T01:47:13;7.67;;;6.97;;
2458;SDS011;1241;50.920;6.936;2022-07-09T01:49:41;8.30;;;7.43;;
2458;SDS011;1241;50.920;6.936;2022-07-09T01:52:08;10.07;;;7.33;;
2458;SDS011;1241;50.920;6.936;2022-07-09T01:54:34;7.90;;;7.20;;
2458;SDS011;1241;50.920;6.936;2022-07-09T01:57:00;10.30;;;8.00;;
2458;SDS011;1241;50.920;6.936;2022-07-09T01:59:26;7.83;;;7.13;;
2458;SDS011;1241;50.920;6.936;2022-07-09T02:01:51;8.23;;;7.30;;
2458;SDS011;1241;50.920;6.936;2022-07-09T02:04:17;10.20;;;7.77;;
2458;SDS011;1241;50.920;6.936;2022-07-09T02:06:43;8.27;;;7.57;;
2458;SDS011;1241;50.920;6.936;2022-07-09T02:09:08;9.93;;;7.87;;
2458;SDS011;1241;50.920;6.936;2022-07-09T02:11:34;9.77;;;8.00;;
2458;SDS011;1241;50.920;6.936;2022-07-09T02:14:00;9.77;;;8.37;;
2458;SDS011;1241;50.920;6.936;2022-07-09T02:16:25;8.03;;;7.23;;
2458;SDS011;1241;50.920;6.936;2022-07-09T02:18:51;10.87;;;7.40;;
2458;SDS011;1241;50.920;6.936;2022-07-09T02:21:17;8.67;;;7.83;;
2458;SDS011;1241;50.920;6.936;2022-07-09T02:23:43;9.83;;;8.90;;
2458;SDS011;1241;50.920;6.936;2022-07-09T02:26:10;9.83;;;8.93;;
2458;SDS011;1241;50.920;6.936;2022-07-09T02:28:36;10.77;;;9.00;;
2458;SDS011;1241;50.920;6.936;2022-07-09T02:31:01;9.67;;;8.73;;
2458;SDS011;1241;50.920;6.936;2022-07-09T02:33:27;13.47;;;9.43;;
2458;SDS011;1241;50.920;6.936;2022-07-09T02:35:55;12.60;;;8.77;;
2458;SDS011;1241;50.920;6.936;2022-07-09T02:38:21;8.87;;;8.03;;
2458;SDS011;1241;50.920;6.936;2022-07-09T02:40:47;10.33;;;9.03;;
2458;SDS011;1241;50.920;6.936;2022-07-09T02:43:13;11.60;;;9.80;;
2458;SDS011;1241;50.920;6.936;2022-07-09T02:45:39;10.43;;;8.33;;
2458;SDS011;1241;50.920;6.936;2022-07-09T02:48:04;9.33;;;8.53;;
2458;SDS011;1241;50.920;6.936;2022-07-09T02:50:30;9.33;;;8.40;;
2458;SDS011;1241;50.920;6.936;2022-07-09T02:52:56;9.13;;;8.23;;
2458;SDS011;1241;50.920;6.936;2022-07-09T02:55:21;9.03;;;8.10;;
2458;SDS011;1241;50.920;6.936;2022-07-09T02:57:47;9.33;;;8.43;;
2458;SDS011;1241;50.920;6.936;2022-07-09T03:00:13;9.47;;;8.67;;
2458;SDS011;1241;50.920;6.936;2022-07-09T03:02:40;13.73;;;9.47;;
2458;SDS011;1241;50.920;6.936;2022-07-09T03:05:05;10.20;;;7.50;;
2458;SDS011;1241;50.920;6.936;2022-07-09T03:07:31;9.17;;;8.37;;
2458;SDS011;1241;50.920;6.936;2022-07-09T03:09:57;10.80;;;8.90;;
2458;SDS011;1241;50.920;6.936;2022-07-09T03:12:23;9.77;;;8.53;;
2458;SDS011;1241;50.920;6.936;2022-07-09T03:14:48;9.87;;;8.97;;
2458;SDS011;1241;50.920;6.936;2022-07-09T03:17:14;9.87;;;8.57;;
2458;SDS011;1241;50.920;6.936;2022-07-09T03:19:40;13.67;;;10.20;;
2458;SDS011;1241;50.920;6.936;2022-07-09T03:22:06;9.00;;;8.10;;
2458;SDS011;1241;50.920;6.936;2022-07-09T03:24:31;8.70;;;7.77;;
2458;SDS011;1241;50.920;6.936;2022-07-09T03:26:57;9.03;;;7.90;;
2458;SDS011;1241;50.920;6.936;2022-07-09T03:29:23;8.93;;;7.80;;
2458;SDS011;1241;50.920;6.936;2022-07-09T03:31:49;8.97;;;7.93;;
2458;SDS011;1241;50.920;6.936;2022-07-09T03:34:14;14.67;;;8.90;;
2458;SDS011;1241;50.920;6.936;2022-07-09T03:36:40;9.17;;;8.27;;
2458;SDS011;1241;50.920;6.936;2022-07-09T03:39:06;7.60;;;7.10;;
2458;SDS011;1241;50.920;6.936;2022-07-09T03:41:32;10.63;;;7.90;;
2458;SDS011;1241;50.920;6.936;2022-07-09T03:43:58;8.00;;;7.20;;
2458;SDS011;1241;50.920;6.936;2022-07-09T03:46:24;9.33;;;8.53;;
2458;SDS011;1241;50.920;6.936;2022-07-09T03:48:50;12.80;;;8.70;;
2458;SDS011;1241;50.920;6.936;2022-07-09T03:51:16;8.40;;;7.57;;
2458;SDS011;1241;50.920;6.936;2022-07-09T03:53:42;10.00;;;6.97;;
2458;SDS011;1241;50.920;6.936;2022-07-09T03:56:08;8.50;;;7.60;;
2458;SDS011;1241;50.920;6.936;2022-07-09T03:58:33;10.33;;;6.90;;
2458;SDS011;1241;50.920;6.936;2022-07-09T04:00:59;9.17;;;7.53;;
2458;SDS011;1241;50.920;6.936;2022-07-09T04:03:25;9.87;;;8.53;;
2458;SDS011;1241;50.920;6.936;2022-07-09T04:05:50;9.73;;;7.23;;
2458;SDS011;1241;50.920;6.936;2022-07-09T04:08:16;12.03;;;8.40;;
2458;SDS011;1241;50.920;6.936;2022-07-09T04:10:42;10.33;;;7.90;;
2458;SDS011;1241;50.920;6.936;2022-07-09T04:13:07;8.73;;;7.93;;
2458;SDS011;1241;50.920;6.936;2022-07-09T04:15:33;8.03;;;7.37;;
2458;SDS011;1241;50.920;6.936;2022-07-09T04:17:59;13.20;;;7.83;;
2458;SDS011;1241;50.920;6.936;2022-07-09T04:20:25;8.13;;;7.27;;
2458;SDS011;1241;50.920;6.936;2022-07-09T04:22:51;8.67;;;7.73;;
2458;SDS011;1241;50.920;6.936;2022-07-09T04:25:17;9.30;;;8.40;;
2458;SDS011;1241;50.920;6.936;2022-07-09T04:27:43;7.27;;;6.70;;
2458;SDS011;1241;50.920;6.936;2022-07-09T04:30:09;8.53;;;7.87;;
2458;SDS011;1241;50.920;6.936;2022-07-09T04:32:35;11.90;;;7.50;;
2458;SDS011;1241;50.920;6.936;2022-07-09T04:35:01;9.33;;;7.70;;
2458;SDS011;1241;50.920;6.936;2022-07-09T04:37:28;12.10;;;8.40;;
2458;SDS011;1241;50.920;6.936;2022-07-09T04:39:53;7.93;;;7.30;;
2458;SDS011;1241;50.920;6.936;2022-07-09T04:42:19;9.13;;;8.10;;
2458;SDS011;1241;50.920;6.936;2022-07-09T04:44:45;9.37;;;8.57;;
2458;SDS011;1241;50.920;6.936;2022-07-09T04:47:11;10.13;;;9.00;;
2458;SDS011;1241;50.920;6.936;2022-07-09T04:49:37;11.33;;;9.40;;
2458;SDS011;1241;50.920;6.936;2022-07-09T04:52:03;11.03;;;9.97;;
2458;SDS011;1241;50.920;6.936;2022-07-09T04:54:30;13.47;;;11.17;;
2458;SDS011;1241;50.920;6.936;2022-07-09T04:56:55;10.53;;;9.63;;
2458;SDS011;1241;50.920;6.936;2022-07-09T04:59:22;12.13;;;10.93;;
2458;SDS011;1241;50.920;6.936;2022-07-09T05:01:47;13.73;;;11.23;;
2458;SDS011;1241;50.920;6.936;2022-07-09T05:04:15;11.53;;;10.40;;
2458;SDS011;1241;50.920;6.936;2022-07-09T05:06:41;11.37;;;9.77;;
2458;SDS011;1241;50.920;6.936;2022-07-09T05:09:07;11.23;;;10.00;;
2458;SDS011;1241;50.920;6.936;2022-07-09T05:11:33;11.90;;;10.80;;
2458;SDS011;1241;50.920;6.936;2022-07-09T05:13:59;14.20;;;9.37;;
2458;SDS011;1241;50.920;6.936;2022-07-09T05:16:24;12.17;;;9.90;;
2458;SDS011;1241;50.920;6.936;2022-07-09T05:18:50;12.57;;;8.80;;
2458;SDS011;1241;50.920;6.936;2022-07-09T05:21:16;10.03;;;9.03;;
2458;SDS011;1241;50.920;6.936;2022-07-09T05:23:42;11.90;;;10.27;;
2458;SDS011;1241;50.920;6.936;2022-07-09T05:26:08;9.10;;;8.37;;
2458;SDS011;1241;50.920;6.936;2022-07-09T05:28:33;9.50;;;8.60;;
2458;SDS011;1241;50.920;6.936;2022-07-09T05:30:59;11.93;;;10.00;;
2458;SDS011;1241;50.920;6.936;2022-07-09T05:33:25;10.03;;;9.13;;
2458;SDS011;1241;50.920;6.936;2022-07-09T05:35:50;9.80;;;8.80;;
2458;SDS011;1241;50.920;6.936;2022-07-09T05:38:17;10.80;;;9.80;;
2458;SDS011;1241;50.920;6.936;2022-07-09T05:40:43;8.90;;;8.20;;
2458;SDS011;1241;50.920;6.936;2022-07-09T05:43:08;9.97;;;9.17;;
2458;SDS011;1241;50.920;6.936;2022-07-09T05:45:34;10.10;;;9.20;;
2458;SDS011;1241;50.920;6.936;2022-07-09T05:48:00;10.43;;;9.27;;
2458;SDS011;1241;50.920;6.936;2022-07-09T05:50:25;9.67;;;8.77;;
2458;SDS011;1241;50.920;6.936;2022-07-09T05:52:51;10.50;;;9.70;;
2458;SDS011;1241;50.920;6.936;2022-07-09T05:55:17;10.50;;;9.13;;
2458;SDS011;1241;50.920;6.936;2022-07-09T05:57:42;10.70;;;9.70;;
2458;SDS011;1241;50.920;6.936;2022-07-09T06:00:08;10.47;;;9.43;;
2458;SDS011;1241;50.920;6.936;2022-07-09T06:02:34;11.00;;;10.20;;
2458;SDS011;1241;50.920;6.936;2022-07-09T06:05:00;11.67;;;10.57;;
2458;SDS011;1241;50.920;6.936;2022-07-09T06:07:26;11.20;;;10.30;;
2458;SDS011;1241;50.920;6.936;2022-07-09T06:09:51;10.27;;;9.27;;
2458;SDS011;1241;50.920;6.936;2022-07-09T06:12:17;10.83;;;9.23;;
2458;SDS011;1241;50.920;6.936;2022-07-09T06:14:43;11.97;;;10.77;;
2458;SDS011;1241;50.920;6.936;2022-07-09T06:17:08;10.37;;;9.37;;
2458;SDS011;1241;50.920;6.936;2022-07-09T06:19:35;11.73;;;10.80;;
2458;SDS011;1241;50.920;6.936;2022-07-09T06:22:01;12.40;;;11.30;;
2458;SDS011;1241;50.920;6.936;2022-07-09T06:24:28;13.90;;;10.80;;
2458;SDS011;1241;50.920;6.936;2022-07-09T06:26:55;11.07;;;10.07;;
2458;SDS011;1241;50.920;6.936;2022-07-09T06:29:21;12.93;;;11.33;;
2458;SDS011;1241;50.920;6.936;2022-07-09T06:31:47;12.00;;;10.90;;
2458;SDS011;1241;50.920;6.936;2022-07-09T06:34:12;11.30;;;10.17;;
2458;SDS011;1241;50.920;6.936;2022-07-09T06:36:38;12.20;;;11.10;;
2458;SDS011;1241;50.920;6.936;2022-07-09T06:39:05;12.27;;;11.13;;
2458;SDS011;1241;50.920;6.936;2022-07-09T06:41:49;10.90;;;9.97;;
2458;SDS011;1241;50.920;6.936;2022-07-09T06:44:14;8.03;;;7.23;;
2458;SDS011;1241;50.920;6.936;2022-07-09T06:46:40;6.93;;;6.30;;
2458;SDS011;1241;50.920;6.936;2022-07-09T06:49:06;7.07;;;6.37;;
2458;SDS011;1241;50.920;6.936;2022-07-09T06:51:32;7.57;;;5.03;;
2458;SDS011;1241;50.920;6.936;2022-07-09T06:53:58;6.80;;;6.13;;
2458;SDS011;1241;50.920;6.936;2022-07-09T06:56:23;6.50;;;6.00;;
2458;SDS011;1241;50.920;6.936;2022-07-09T06:58:49;7.07;;;6.50;;
2458;SDS011;1241;50.920;6.936;2022-07-09T07:01:15;6.30;;;5.60;;
2458;SDS011;1241;50.920;6.936;2022-07-09T07:03:40;5.93;;;5.53;;
2458;SDS011;1241;50.920;6.936;2022-07-09T07:06:06;4.90;;;4.40;;
2458;SDS011;1241;50.920;6.936;2022-07-09T07:08:32;7.00;;;4.60;;
2458;SDS011;1241;50.920;6.936;2022-07-09T07:10:58;4.37;;;3.97;;
2458;SDS011;1241;50.920;6.936;2022-07-09T07:13:24;5.30;;;4.80;;
2458;SDS011;1241;50.920;6.936;2022-07-09T07:15:50;5.37;;;4.97;;
2458;SDS011;1241;50.920;6.936;2022-07-09T07:18:16;7.10;;;6.40;;
2458;SDS011;1241;50.920;6.936;2022-07-09T07:20:44;6.93;;;6.27;;
2458;SDS011;1241;50.920;6.936;2022-07-09T07:23:10;7.93;;;6.73;;
2458;SDS011;1241;50.920;6.936;2022-07-09T07:25:36;8.20;;;7.50;;
2458;SDS011;1241;50.920;6.936;2022-07-09T07:28:02;9.70;;;7.30;;
2458;SDS011;1241;50.920;6.936;2022-07-09T07:30:29;7.97;;;6.93;;
2458;SDS011;1241;50.920;6.936;2022-07-09T07:32:58;7.37;;;6.60;;
2458;SDS011;1241;50.920;6.936;2022-07-09T07:35:24;7.53;;;6.83;;
2458;SDS011;1241;50.920;6.936;2022-07-09T07:37:50;7.10;;;6.13;;
2458;SDS011;1241;50.920;6.936;2022-07-09T07:40:16;9.13;;;7.47;;
2458;SDS011;1241;50.920;6.936;2022-07-09T07:42:42;7.77;;;6.37;;
2458;SDS011;1241;50.920;6.936;2022-07-09T07:45:08;6.83;;;5.93;;
2458;SDS011;1241;50.920;6.936;2022-07-09T07:47:34;9.83;;;7.50;;
2458;SDS011;1241;50.920;6.936;2022-07-09T07:50:00;10.33;;;7.67;;
2458;SDS011;1241;50.920;6.936;2022-07-09T07:52:26;10.10;;;7.57;;
2458;SDS011;1241;50.920;6.936;2022-07-09T07:54:52;10.60;;;9.50;;
2458;SDS011;1241;50.920;6.936;2022-07-09T07:57:17;8.50;;;7.27;;
2458;SDS011;1241;50.920;6.936;2022-07-09T07:59:43;9.67;;;8.77;;
2458;SDS011;1241;50.920;6.936;2022-07-09T08:02:09;10.17;;;9.17;;
2458;SDS011;1241;50.920;6.936;2022-07-09T08:04:34;9.03;;;8.23;;
2458;SDS011;1241;50.920;6.936;2022-07-09T08:07:00;9.47;;;8.57;;
2458;SDS011;1241;50.920;6.936;2022-07-09T08:09:26;8.67;;;7.10;;
2458;SDS011;1241;50.920;6.936;2022-07-09T08:11:51;7.60;;;6.70;;
2458;SDS011;1241;50.920;6.936;2022-07-09T08:14:17;8.13;;;7.03;;
2458;SDS011;1241;50.920;6.936;2022-07-09T08:16:43;5.83;;;5.40;;
2458;SDS011;1241;50.920;6.936;2022-07-09T08:19:08;5.33;;;4.83;;
2458;SDS011;1241;50.920;6.936;2022-07-09T08:21:34;5.17;;;4.77;;
2458;SDS011;1241;50.920;6.936;2022-07-09T08:24:00;3.73;;;3.33;;
2458;SDS011;1241;50.920;6.936;2022-07-09T08:26:29;4.33;;;4.00;;
2458;SDS011;1241;50.920;6.936;2022-07-09T08:28:55;3.90;;;3.60;;
2458;SDS011;1241;50.920;6.936;2022-07-09T08:31:21;3.07;;;2.83;;
2458;SDS011;1241;50.920;6.936;2022-07-09T08:33:48;3.63;;;2.83;;
2458;SDS011;1241;50.920;6.936;2022-07-09T08:36:14;3.00;;;2.80;;
2458;SDS011;1241;50.920;6.936;2022-07-09T08:38:40;3.43;;;3.13;;
2458;SDS011;1241;50.920;6.936;2022-07-09T08:41:06;3.57;;;3.27;;
2458;SDS011;1241;50.920;6.936;2022-07-09T08:43:35;3.03;;;2.83;;
2458;SDS011;1241;50.920;6.936;2022-07-09T08:46:02;3.20;;;2.87;;
2458;SDS011;1241;50.920;6.936;2022-07-09T08:48:32;3.20;;;3.00;;
2458;SDS011;1241;50.920;6.936;2022-07-09T08:51:01;6.87;;;3.47;;
2458;SDS011;1241;50.920;6.936;2022-07-09T08:53:28;3.67;;;2.90;;
2458;SDS011;1241;50.920;6.936;2022-07-09T08:55:55;3.40;;;2.90;;
2458;SDS011;1241;50.920;6.936;2022-07-09T08:58:21;3.87;;;3.57;;
2458;SDS011;1241;50.920;6.936;2022-07-09T09:00:49;3.17;;;2.97;;
2458;SDS011;1241;50.920;6.936;2022-07-09T09:03:19;5.10;;;3.53;;
2458;SDS011;1241;50.920;6.936;2022-07-09T09:05:45;3.97;;;3.67;;
2458;SDS011;1241;50.920;6.936;2022-07-09T09:08:20;4.73;;;3.10;;
2458;SDS011;1241;50.920;6.936;2022-07-09T09:10:49;4.60;;;3.30;;
2458;SDS011;1241;50.920;6.936;2022-07-09T09:13:15;2.60;;;2.40;;
2458;SDS011;1241;50.920;6.936;2022-07-09T09:15:44;3.40;;;3.13;;
2458;SDS011;1241;50.920;6.936;2022-07-09T09:18:10;3.87;;;3.57;;
2458;SDS011;1241;50.920;6.936;2022-07-09T09:20:36;5.33;;;4.00;;
2458;SDS011;1241;50.920;6.936;2022-07-09T09:23:02;3.93;;;3.47;;
2458;SDS011;1241;50.920;6.936;2022-07-09T09:25:30;3.53;;;3.30;;
2458;SDS011;1241;50.920;6.936;2022-07-09T09:27:57;4.30;;;3.90;;
2458;SDS011;1241;50.920;6.936;2022-07-09T09:30:24;4.00;;;3.70;;
2458;SDS011;1241;50.920;6.936;2022-07-09T09:32:57;4.03;;;3.57;;
2458;SDS011;1241;50.920;6.936;2022-07-09T09:35:25;3.63;;;3.43;;
2458;SDS011;1241;50.920;6.936;2022-07-09T09:37:52;3.90;;;3.60;;
2458;SDS011;1241;50.920;6.936;2022-07-09T09:40:18;3.70;;;3.37;;
2458;SDS011;1241;50.920;6.936;2022-07-09T09:42:45;4.23;;;3.73;;
2458;SDS011;1241;50.920;6.936;2022-07-09T09:45:12;4.00;;;3.50;;
2458;SDS011;1241;50.920;6.936;2022-07-09T09:47:41;3.90;;;3.60;;
2458;SDS011;1241;50.920;6.936;2022-07-09T09:50:10;4.70;;;4.30;;
2458;SDS011;1241;50.920;6.936;2022-07-09T09:52:48;5.07;;;3.47;;
2458;SDS011;1241;50.920;6.936;2022-07-09T09:55:16;3.50;;;3.30;;
2458;SDS011;1241;50.920;6.936;2022-07-09T09:57:44;3.30;;;3.10;;
2458;SDS011;1241;50.920;6.936;2022-07-09T10:00:10;2.90;;;2.70;;
2458;SDS011;1241;50.920;6.936;2022-07-09T10:02:42;2.80;;;2.60;;
2458;SDS011;1241;50.920;6.936;2022-07-09T10:05:09;3.00;;;2.70;;
2458;SDS011;1241;50.920;6.936;2022-07-09T10:07:35;4.53;;;2.47;;
2458;SDS011;1241;50.920;6.936;2022-07-09T10:10:01;2.57;;;2.23;;
2458;SDS011;1241;50.920;6.936;2022-07-09T10:12:28;10.03;;;2.10;;
2458;SDS011;1241;50.920;6.936;2022-07-09T10:14:55;2.50;;;1.90;;
2458;SDS011;1241;50.920;6.936;2022-07-09T10:17:22;2.13;;;2.03;;
2458;SDS011;1241;50.920;6.936;2022-07-09T10:19:53;2.57;;;2.37;;
2458;SDS011;1241;50.920;6.936;2022-07-09T10:25:09;2.50;;;2.30;;
2458;SDS011;1241;50.920;6.936;2022-07-09T10:27:43;2.60;;;2.40;;
2458;SDS011;1241;50.920;6.936;2022-07-09T10:30:29;2.53;;;2.33;;
2458;SDS011;1241;50.920;6.936;2022-07-09T10:33:06;3.10;;;2.90;;
2458;SDS011;1241;50.920;6.936;2022-07-09T10:36:09;3.03;;;2.73;;
2458;SDS011;1241;50.920;6.936;2022-07-09T10:38:34;3.53;;;3.33;;
2458;SDS011;1241;50.920;6.936;2022-07-09T10:41:03;2.77;;;2.57;;
2458;SDS011;1241;50.920;6.936;2022-07-09T10:46:12;2.40;;;2.30;;
2458;SDS011;1241;50.920;6.936;2022-07-09T10:48:39;2.43;;;2.33;;
2458;SDS011;1241;50.920;6.936;2022-07-09T10:51:05;2.93;;;2.73;;
2458;SDS011;1241;50.920;6.936;2022-07-09T10:53:30;3.03;;;2.43;;
2458;SDS011;1241;50.920;6.936;2022-07-09T10:55:56;2.57;;;2.43;;
2458;SDS011;1241;50.920;6.936;2022-07-09T10:58:24;3.13;;;2.93;;
2458;SDS011;1241;50.920;6.936;2022-07-09T11:01:00;2.33;;;2.23;;
2458;SDS011;1241;50.920;6.936;2022-07-09T11:03:29;2.47;;;2.27;;
2458;SDS011;1241;50.920;6.936;2022-07-09T11:05:56;3.30;;;3.00;;
2458;SDS011;1241;50.920;6.936;2022-07-09T11:08:22;3.27;;;3.07;;
2458;SDS011;1241;50.920;6.936;2022-07-09T11:10:48;2.70;;;2.60;;
2458;SDS011;1241;50.920;6.936;2022-07-09T11:13:14;3.57;;;3.13;;
2458;SDS011;1241;50.920;6.936;2022-07-09T11:15:40;2.43;;;2.30;;
2458;SDS011;1241;50.920;6.936;2022-07-09T11:20:37;4.67;;;3.17;;
2458;SDS011;1241;50.920;6.936;2022-07-09T11:23:09;2.50;;;2.40;;
2458;SDS011;1241;50.920;6.936;2022-07-09T11:25:36;2.40;;;2.20;;
2458;SDS011;1241;50.920;6.936;2022-07-09T11:28:02;2.97;;;2.77;;
2458;SDS011;1241;50.920;6.936;2022-07-09T11:30:28;2.80;;;2.60;;
2458;SDS011;1241;50.920;6.936;2022-07-09T11:32:55;2.97;;;2.77;;
2458;SDS011;1241;50.920;6.936;2022-07-09T11:37:55;2.50;;;2.40;;
2458;SDS011;1241;50.920;6.936;2022-07-09T11:40:21;2.77;;;2.67;;
2458;SDS011;1241;50.920;6.936;2022-07-09T11:42:48;2.50;;;2.30;;
2458;SDS011;1241;50.920;6.936;2022-07-09T11:45:34;3.50;;;3.20;;
2458;SDS011;1241;50.920;6.936;2022-07-09T11:48:06;3.20;;;2.93;;
2458;SDS011;1241;50.920;6.936;2022-07-09T11:50:44;3.50;;;3.20;;
2458;SDS011;1241;50.920;6.936;2022-07-09T11:53:23;3.40;;;3.10;;
2458;SDS011;1241;50.920;6.936;2022-07-09T11:55:57;3.10;;;2.90;;
2458;SDS011;1241;50.920;6.936;2022-07-09T11:58:24;3.97;;;3.33;;
2458;SDS011;1241;50.920;6.936;2022-07-09T12:00:50;3.87;;;3.57;;
2458;SDS011;1241;50.920;6.936;2022-07-09T12:03:23;3.60;;;3.30;;
2458;SDS011;1241;50.920;6.936;2022-07-09T12:05:50;3.43;;;3.03;;
2458;SDS011;1241;50.920;6.936;2022-07-09T12:08:25;4.10;;;3.90;;
2458;SDS011;1241;50.920;6.936;2022-07-09T12:10:52;3.40;;;3.20;;
2458;SDS011;1241;50.920;6.936;2022-07-09T12:13:18;3.77;;;3.47;;
2458;SDS011;1241;50.920;6.936;2022-07-09T12:15:44;4.00;;;3.70;;
2458;SDS011;1241;50.920;6.936;2022-07-09T12:18:10;5.57;;;5.10;;
2458;SDS011;1241;50.920;6.936;2022-07-09T12:20:35;3.97;;;3.77;;
2458;SDS011;1241;50.920;6.936;2022-07-09T12:23:01;3.43;;;3.17;;
2458;SDS011;1241;50.920;6.936;2022-07-09T12:25:27;4.03;;;3.73;;
2458;SDS011;1241;50.920;6.936;2022-07-09T12:27:53;4.47;;;4.17;;
2458;SDS011;1241;50.920;6.936;2022-07-09T12:30:18;4.70;;;4.40;;
2458;SDS011;1241;50.920;6.936;2022-07-09T12:32:45;3.80;;;3.40;;
2458;SDS011;1241;50.920;6.936;2022-07-09T12:35:11;4.27;;;3.97;;
2458;SDS011;1241;50.920;6.936;2022-07-09T12:37:37;5.30;;;4.90;;
2458;SDS011;1241;50.920;6.936;2022-07-09T12:40:04;4.43;;;4.13;;
2458;SDS011;1241;50.920;6.936;2022-07-09T12:42:32;4.50;;;4.10;;
2458;SDS011;1241;50.920;6.936;2022-07-09T12:44:57;4.03;;;3.73;;
2458;SDS011;1241;50.920;6.936;2022-07-09T12:47:23;5.00;;;4.70;;
2458;SDS011;1241;50.920;6.936;2022-07-09T12:49:49;4.47;;;4.20;;
2458;SDS011;1241;50.920;6.936;2022-07-09T12:52:15;3.90;;;3.70;;
2458;SDS011;1241;50.920;6.936;2022-07-09T12:54:41;4.60;;;4.20;;
2458;SDS011;1241;50.920;6.936;2022-07-09T12:57:07;4.50;;;4.10;;
2458;SDS011;1241;50.920;6.936;2022-07-09T12:59:32;4.50;;;4.20;;
2458;SDS011;1241;50.920;6.936;2022-07-09T13:01:58;5.13;;;4.73;;
2458;SDS011;1241;50.920;6.936;2022-07-09T13:04:24;5.07;;;4.67;;
2458;SDS011;1241;50.920;6.936;2022-07-09T13:06:50;5.60;;;5.20;;
2458;SDS011;1241;50.920;6.936;2022-07-09T13:09:15;5.73;;;5.33;;
2458;SDS011;1241;50.920;6.936;2022-07-09T13:11:41;6.40;;;6.00;;
2458;SDS011;1241;50.920;6.936;2022-07-09T13:14:07;6.17;;;5.67;;
2458;SDS011;1241;50.920;6.936;2022-07-09T13:16:36;8.27;;;7.40;;
2458;SDS011;1241;50.920;6.936;2022-07-09T13:19:02;8.93;;;8.03;;
2458;SDS011;1241;50.920;6.936;2022-07-09T13:21:28;8.47;;;7.83;;
2458;SDS011;1241;50.920;6.936;2022-07-09T13:23:57;9.53;;;8.70;;
2458;SDS011;1241;50.920;6.936;2022-07-09T13:26:23;9.27;;;8.47;;
2458;SDS011;1241;50.920;6.936;2022-07-09T13:28:48;10.37;;;9.50;;
2458;SDS011;1241;50.920;6.936;2022-07-09T13:31:14;12.63;;;10.63;;
2458;SDS011;1241;50.920;6.936;2022-07-09T13:33:40;10.47;;;8.90;;
2458;SDS011;1241;50.920;6.936;2022-07-09T13:36:06;12.17;;;11.27;;
2458;SDS011;1241;50.920;6.936;2022-07-09T13:38:34;13.13;;;12.10;;
2458;SDS011;1241;50.920;6.936;2022-07-09T13:41:00;13.80;;;12.50;;
2458;SDS011;1241;50.920;6.936;2022-07-09T13:43:26;12.33;;;11.33;;
2458;SDS011;1241;50.920;6.936;2022-07-09T13:45:54;13.17;;;11.97;;
2458;SDS011;1241;50.920;6.936;2022-07-09T13:48:21;12.03;;;11.03;;
2458;SDS011;1241;50.920;6.936;2022-07-09T13:50:47;13.70;;;12.40;;
2458;SDS011;1241;50.920;6.936;2022-07-09T13:53:13;15.07;;;13.77;;
2458;SDS011;1241;50.920;6.936;2022-07-09T13:55:39;13.00;;;12.07;;
2458;SDS011;1241;50.920;6.936;2022-07-09T13:58:05;14.60;;;13.10;;
2458;SDS011;1241;50.920;6.936;2022-07-09T14:00:31;13.80;;;12.70;;
2458;SDS011;1241;50.920;6.936;2022-07-09T14:02:58;17.10;;;14.30;;
2458;SDS011;1241;50.920;6.936;2022-07-09T14:05:23;14.27;;;12.97;;
2458;SDS011;1241;50.920;6.936;2022-07-09T14:07:49;13.63;;;12.60;;
2458;SDS011;1241;50.920;6.936;2022-07-09T14:10:15;13.80;;;12.70;;
2458;SDS011;1241;50.920;6.936;2022-07-09T14:12:41;15.50;;;14.20;;
2458;SDS011;1241;50.920;6.936;2022-07-09T14:15:07;13.43;;;12.10;;
2458;SDS011;1241;50.920;6.936;2022-07-09T14:17:34;16.27;;;14.97;;
2458;SDS011;1241;50.920;6.936;2022-07-09T14:19:59;15.80;;;14.40;;
2458;SDS011;1241;50.920;6.936;2022-07-09T14:22:26;16.83;;;15.40;;
2458;SDS011;1241;50.920;6.936;2022-07-09T14:24:51;17.00;;;15.33;;
2458;SDS011;1241;50.920;6.936;2022-07-09T14:27:17;15.70;;;14.20;;
2458;SDS011;1241;50.920;6.936;2022-07-09T14:29:43;16.00;;;14.70;;
2458;SDS011;1241;50.920;6.936;2022-07-09T14:32:10;16.53;;;15.33;;
2458;SDS011;1241;50.920;6.936;2022-07-09T14:34:36;14.47;;;13.33;;
2458;SDS011;1241;50.920;6.936;2022-07-09T14:37:02;15.83;;;14.63;;
2458;SDS011;1241;50.920;6.936;2022-07-09T14:39:28;17.20;;;15.60;;
2458;SDS011;1241;50.920;6.936;2022-07-09T14:41:54;15.20;;;14.10;;
2458;SDS011;1241;50.920;6.936;2022-07-09T14:44:20;15.83;;;14.53;;
2458;SDS011;1241;50.920;6.936;2022-07-09T14:46:45;15.43;;;14.33;;
2458;SDS011;1241;50.920;6.936;2022-07-09T14:49:11;14.50;;;13.10;;
2458;SDS011;1241;50.920;6.936;2022-07-09T14:51:37;12.33;;;11.10;;
2458;SDS011;1241;50.920;6.936;2022-07-09T14:54:04;13.10;;;12.00;;
2458;SDS011;1241;50.920;6.936;2022-07-09T14:56:30;12.70;;;11.63;;
2458;SDS011;1241;50.920;6.936;2022-07-09T14:58:56;12.00;;;11.07;;
2458;SDS011;1241;50.920;6.936;2022-07-09T15:01:22;11.00;;;10.10;;
2458;SDS011;1241;50.920;6.936;2022-07-09T15:03:48;11.97;;;10.90;;
2458;SDS011;1241;50.920;6.936;2022-07-09T15:06:14;11.27;;;10.20;;
2458;SDS011;1241;50.920;6.936;2022-07-09T15:08:40;11.00;;;10.07;;
2458;SDS011;1241;50.920;6.936;2022-07-09T15:11:05;10.63;;;9.73;;
2458;SDS011;1241;50.920;6.936;2022-07-09T15:13:31;10.97;;;9.93;;
2458;SDS011;1241;50.920;6.936;2022-07-09T15:15:57;11.03;;;9.30;;